createdAt,value
2018-09-02T00:01:45.467Z,9.05
2018-09-02T00:06:48.680Z,9.03
2018-09-02T00:11:51.902Z,8.00
2018-09-02T00:16:55.132Z,7.37
2018-09-02T00:21:58.373Z,12.18
2018-09-02T00:27:01.571Z,9.58
2018-09-02T00:32:04.784Z,12.80
2018-09-02T00:37:08.015Z,11.05
2018-09-02T00:42:11.232Z,9.50
2018-09-02T00:47:14.548Z,10.25
2018-09-02T00:52:17.844Z,10.32
2018-09-02T00:57:21.047Z,10.28
2018-09-02T01:02:24.271Z,10.68
2018-09-02T01:07:28.961Z,8.23
2018-09-02T01:12:32.175Z,8.83
2018-09-02T01:17:35.383Z,11.95
2018-09-02T01:22:38.533Z,11.97
2018-09-02T01:27:41.686Z,10.00
2018-09-02T01:32:44.849Z,12.10
2018-09-02T01:37:48.023Z,11.12
2018-09-02T01:42:51.182Z,12.00
2018-09-02T01:47:54.364Z,12.33
2018-09-02T01:52:57.578Z,14.15
2018-09-02T01:58:00.771Z,16.40
2018-09-02T02:03:03.960Z,15.30
2018-09-02T02:08:07.527Z,15.72
2018-09-02T02:13:10.703Z,12.45
2018-09-02T02:18:13.871Z,15.67
2018-09-02T02:23:17.070Z,18.87
2018-09-02T02:28:20.546Z,20.43
2018-09-02T02:33:23.731Z,20.12
2018-09-02T02:38:26.925Z,15.20
2018-09-02T02:43:30.102Z,18.00
2018-09-02T02:48:33.311Z,26.27
2018-09-02T02:53:36.490Z,25.95
2018-09-02T02:58:39.793Z,28.38
2018-09-02T03:03:42.969Z,21.95
2018-09-02T03:08:46.128Z,19.03
2018-09-02T03:13:49.297Z,27.77
2018-09-02T03:18:52.454Z,21.48
2018-09-02T03:23:55.610Z,18.10
2018-09-02T03:28:58.799Z,21.95
2018-09-02T03:34:01.960Z,20.90
2018-09-02T03:39:06.210Z,27.97
2018-09-02T03:44:09.379Z,18.17
2018-09-02T03:49:12.608Z,18.15
2018-09-02T03:54:15.750Z,22.37
2018-09-02T03:59:18.962Z,28.83
2018-09-02T04:04:22.145Z,27.48
2018-09-02T04:09:25.330Z,27.03
2018-09-02T04:14:28.527Z,31.97
2018-09-02T04:19:31.689Z,23.73
2018-09-02T04:24:34.896Z,28.17
2018-09-02T04:29:38.075Z,45.38
2018-09-02T04:34:41.262Z,49.23
2018-09-02T04:39:44.451Z,52.80
2018-09-02T04:44:47.715Z,58.92
2018-09-02T04:49:50.907Z,38.15
2018-09-02T04:54:54.086Z,50.33
2018-09-02T04:59:57.839Z,49.10
2018-09-02T05:05:01.147Z,51.92
2018-09-02T05:10:04.857Z,42.10
2018-09-02T05:15:08.006Z,27.62
2018-09-02T05:20:11.282Z,24.73
2018-09-02T05:25:14.442Z,15.75
2018-09-02T05:30:17.608Z,17.17
2018-09-02T05:35:20.810Z,12.95
2018-09-02T05:40:23.968Z,12.53
2018-09-02T05:45:27.135Z,11.73
2018-09-02T05:50:30.347Z,11.50
2018-09-02T05:55:33.567Z,11.33
2018-09-02T06:00:36.794Z,11.20
2018-09-02T06:05:39.993Z,11.23
2018-09-02T06:10:43.219Z,10.90
2018-09-02T06:15:46.464Z,10.68
2018-09-02T06:20:49.686Z,11.73
2018-09-02T06:25:52.878Z,12.13
2018-09-02T06:30:56.079Z,12.37
2018-09-02T06:35:59.257Z,13.13
2018-09-02T06:41:03.056Z,11.80
2018-09-02T06:46:06.278Z,11.30
2018-09-02T06:51:09.753Z,11.43
2018-09-02T06:56:12.926Z,11.23
2018-09-02T07:01:16.083Z,10.90
2018-09-02T07:06:19.307Z,10.97
2018-09-02T07:11:22.479Z,10.20
2018-09-02T07:16:25.643Z,10.23
2018-09-02T07:21:28.838Z,10.58
2018-09-02T07:26:32.162Z,9.90
2018-09-02T07:31:35.422Z,9.48
2018-09-02T07:36:38.862Z,10.03
2018-09-02T07:41:42.128Z,9.27
2018-09-02T07:46:45.291Z,9.30
2018-09-02T07:51:48.968Z,11.73
2018-09-02T07:56:52.285Z,9.35
2018-09-02T08:01:55.874Z,12.13
2018-09-02T08:06:59.298Z,7.10
2018-09-02T08:12:03.245Z,7.03
2018-09-02T08:17:06.512Z,5.85
2018-09-02T08:22:09.679Z,5.92
2018-09-02T08:27:12.878Z,6.58
2018-09-02T08:32:16.463Z,5.22
2018-09-02T08:37:19.735Z,6.10
2018-09-02T08:42:23.094Z,5.47
2018-09-02T08:47:26.317Z,5.00
2018-09-02T08:52:29.548Z,6.20
2018-09-02T08:57:32.911Z,6.22
2018-09-02T09:02:36.355Z,5.85
2018-09-02T09:07:39.607Z,6.90
2018-09-02T09:12:42.798Z,5.90
2018-09-02T09:17:45.981Z,6.70
2018-09-02T09:22:49.297Z,5.30
2018-09-02T09:27:52.499Z,5.78
2018-09-02T09:32:55.726Z,6.15
2018-09-02T09:37:59.048Z,6.40
